Terminal Aerodrome Forecast
Issued by NWS

Current Version | Previous Version | Text Only | Print | Product List | Glossary On
Versions: 1 2 3 4 5 6 7 8 9 10 11 12 13
000
FTUS42 TJSJ 311135
TAFISX
TAF
TISX 311135Z 3112/0112 VRB03KT P6SM VCSH SCT030
     FM311350 11012KT P6SM VCSH SCT030 SCT070
     FM312200 07006KT P6SM FEW025 FEW040
      AMD NOT SKED=

USA.gov is the U.S. government's official web portal to all federal, state and local government web resources and services.